This is the latest recevied weather packets stored in our database for station/object SP9MLI-1. If no packets are shown the sender has not sent any weather packets the latest 10 day(s).
| Time | Temp. | Humidity | Pressure | Rain* | Wind** | Luminosity | Snow |
|---|---|---|---|---|---|---|---|
| 1777627397 | 22.78° C | 47% | 1029.9 hPa | 0 mm | - | - | - |
| 1777626498 | 22.22° C | 50% | 1029.9 hPa | 0 mm | - | - | - |
| 1777622898 | 22.78° C | 50% | 1029.6 hPa | 0 mm | - | - | - |
| 1777619307 | 20.56° C | 50% | 1027.5 hPa | 0 mm | - | - | - |
| 1777618403 | 20.56° C | 50% | 1027.5 hPa | 0 mm | - | - | - |
| 1777576093 | 10° C | 69% | 1027.2 hPa | 0 mm | - | - | - |
| 1777574293 | 11.11° C | 66% | 1027.5 hPa | 0 mm | - | - | - |
| 1777562592 | 16.11° C | 42% | 1028.6 hPa | 0 mm | - | - | - |
| 1777557192 | 16.11° C | 46% | 1028.9 hPa | 0 mm | - | - | - |
| 1777555430 | 17.22° C | 54% | 1029.2 hPa | 0 mm | - | - | - |
| 1777544593 | 13.33° C | 59% | 1029.2 hPa | 0 mm | - | - | - |
| 1777543693 | 12.78° C | 59% | 1028.9 hPa | 0 mm | - | - | - |
| 1777541893 | 12.78° C | 59% | 1029.2 hPa | 0 mm | - | - | - |
| 1777540993 | 13.33° C | 60% | 1029.6 hPa | 0 mm | - | - | - |
| 1777540093 | 13.89° C | 58% | 1029.9 hPa | 0 mm | - | - | - |
| 1777538293 | 14.44° C | 55% | 1029.6 hPa | 0 mm | - | - | - |
| 1777537393 | 15° C | 54% | 1029.9 hPa | 0 mm | - | - | - |
| 1777534693 | 12.22° C | 54% | 1029.2 hPa | 0 mm | - | - | - |
| 1777533793 | 11.67° C | 54% | 1029.2 hPa | 0 mm | - | - | - |
| 1777532893 | 11.11° C | 56% | 1029.2 hPa | 0 mm | - | - | - |
| 1777531099 | 9.44° C | 59% | 1028.9 hPa | 0 mm | - | - | - |
| 1777530192 | 4.44° C | 75% | 1027.5 hPa | 0 mm | - | - | - |
| 1777529398 | 4.44° C | 75% | 1027.5 hPa | 0 mm | - | - | - |
| 1777528393 | 4.44° C | 75% | 1027.5 hPa | 0 mm | - | - | - |
| 1777527492 | 4.44° C | 75% | 1027.5 hPa | 0 mm | - | - | - |
* Rain latest hour (hover to see other rain measurements)
** Current wind speed in m/s (hover to see current wind gust speed)